Time;durP1;ratioP1;P1;durP2;ratioP2;P2;SDS_P1;SDS_P2;PMS_P1;PMS_P2;Temp;Humidity;BMP_temperature;BMP_pressure;BME280_temperature;BME280_humidity;BME280_pressure;Samples;Min_cycle;Max_cycle;Signal;HPM_P1;HPM_P2
2022/04/03 00:00:38;;;;;;;11.00;3.72;;;;;;;;;;5051507;28;20108;-75
2022/04/03 00:03:04;;;;;;;7.20;3.55;;;;;;;;;;5051482;28;20094;-75
2022/04/03 00:05:37;;;;;;;7.85;4.00;;;;;;;;;;5051422;28;20017;-75
2022/04/03 00:08:04;;;;;;;5.72;3.00;;;;;;;;;;5033498;28;20025;-75
2022/04/03 00:10:29;;;;;;;5.38;3.22;;;;;;;;;;5051430;28;20094;-75
2022/04/03 00:12:56;;;;;;;8.98;3.60;;;;;;;;;;5053249;28;20463;-74
2022/04/03 00:15:22;;;;;;;6.93;3.17;;;;;;;;;;5071127;28;20040;-75
2022/04/03 00:17:48;;;;;;;8.60;3.42;;;;;;;;;;5071397;28;20459;-75
2022/04/03 00:20:14;;;;;;;10.60;3.35;;;;;;;;;;5071331;28;20027;-75
2022/04/03 00:22:42;;;;;;;10.82;3.55;;;;;;;;;;5072733;28;20051;-75
2022/04/03 00:25:08;;;;;;;6.45;4.05;;;;;;;;;;5075019;28;20054;-75
2022/04/03 00:27:34;;;;;;;8.18;4.13;;;;;;;;;;5056804;28;20058;-75
2022/04/03 00:30:00;;;;;;;7.05;3.85;;;;;;;;;;5074877;28;20016;-75
2022/04/03 00:32:27;;;;;;;12.48;3.42;;;;;;;;;;5075035;28;20530;-75
2022/04/03 00:34:53;;;;;;;6.90;3.15;;;;;;;;;;5074814;28;20056;-75
2022/04/03 00:37:19;;;;;;;9.50;4.13;;;;;;;;;;5074885;28;20382;-75
2022/04/03 00:39:45;;;;;;;8.52;3.88;;;;;;;;;;5074882;28;20033;-75
2022/04/03 00:42:11;;;;;;;6.68;3.75;;;;;;;;;;5059618;28;20032;-75
2022/04/03 00:44:37;;;;;;;8.27;3.78;;;;;;;;;;5054719;28;20018;-75
2022/04/03 00:47:04;;;;;;;9.75;3.65;;;;;;;;;;5054613;28;20031;-75
2022/04/03 00:49:30;;;;;;;8.15;3.70;;;;;;;;;;5054596;28;20029;-75
2022/04/03 00:51:56;;;;;;;8.13;3.83;;;;;;;;;;5054531;28;20033;-75
2022/04/03 00:54:22;;;;;;;10.65;4.30;;;;;;;;;;5054203;28;20499;-75
2022/04/03 00:56:49;;;;;;;7.82;4.00;;;;;;;;;;5054303;28;20075;-75
2022/04/03 00:59:15;;;;;;;9.60;3.75;;;;;;;;;;5054430;28;20045;-75
2022/04/03 01:01:42;;;;;;;8.68;3.63;;;;;;;;;;5054351;28;20029;-75
2022/04/03 01:04:08;;;;;;;6.35;3.35;;;;;;;;;;5052980;28;20062;-75
2022/04/03 01:06:35;;;;;;;7.18;3.35;;;;;;;;;;5052899;28;20029;-75
2022/04/03 01:09:02;;;;;;;8.52;3.83;;;;;;;;;;5054234;28;20057;-75
2022/04/03 01:11:28;;;;;;;13.23;3.75;;;;;;;;;;5054071;28;20029;-75
2022/04/03 01:13:54;;;;;;;6.28;3.50;;;;;;;;;;5064125;28;20082;-75
2022/04/03 01:16:20;;;;;;;8.27;3.67;;;;;;;;;;5074180;28;20028;-75
2022/04/03 01:18:46;;;;;;;8.95;3.55;;;;;;;;;;5074073;28;20028;-75
2022/04/03 01:21:13;;;;;;;6.45;3.55;;;;;;;;;;5073705;28;20024;-75
2022/04/03 01:23:39;;;;;;;10.77;3.75;;;;;;;;;;5073860;28;20024;-75
2022/04/03 01:26:05;;;;;;;6.63;3.55;;;;;;;;;;5055763;28;20044;-75
2022/04/03 01:28:32;;;;;;;11.02;3.70;;;;;;;;;;5055826;28;20027;-75
2022/04/03 01:30:58;;;;;;;7.22;3.47;;;;;;;;;;5073757;28;20086;-75
2022/04/03 01:33:24;;;;;;;6.95;3.60;;;;;;;;;;5072827;28;20025;-75
2022/04/03 01:35:50;;;;;;;9.77;4.28;;;;;;;;;;5073407;28;20447;-75
2022/04/03 01:38:17;;;;;;;8.75;3.70;;;;;;;;;;5073711;28;20068;-75
2022/04/03 01:40:43;;;;;;;6.32;3.53;;;;;;;;;;5070644;28;20056;-75
2022/04/03 01:43:10;;;;;;;8.07;3.60;;;;;;;;;;5053612;28;20044;-75
2022/04/03 01:45:37;;;;;;;7.13;3.50;;;;;;;;;;5053429;28;20075;-75
2022/04/03 01:48:03;;;;;;;7.35;3.65;;;;;;;;;;5053620;28;20052;-75
2022/04/03 01:50:29;;;;;;;7.25;3.50;;;;;;;;;;5053367;28;20025;-75
2022/04/03 01:52:55;;;;;;;7.78;3.70;;;;;;;;;;5035278;28;20361;-75
2022/04/03 01:55:24;;;;;;;8.55;3.70;;;;;;;;;;5053278;28;20045;-75
2022/04/03 01:57:50;;;;;;;6.85;3.33;;;;;;;;;;5053292;28;20025;-75
2022/04/03 02:00:16;;;;;;;7.43;3.90;;;;;;;;;;5053284;28;20043;-75
2022/04/03 02:02:42;;;;;;;6.65;3.35;;;;;;;;;;5053226;28;20040;-75
2022/04/03 02:05:09;;;;;;;10.55;4.20;;;;;;;;;;5053074;28;20028;-75
2022/04/03 02:07:35;;;;;;;7.82;3.90;;;;;;;;;;5053109;28;20028;-75
2022/04/03 02:10:02;;;;;;;6.97;4.05;;;;;;;;;;5053160;28;20337;-75
2022/04/03 02:12:28;;;;;;;7.70;4.03;;;;;;;;;;5052947;28;20107;-75
2022/04/03 02:14:54;;;;;;;9.52;3.83;;;;;;;;;;5071203;28;20032;-75
2022/04/03 02:17:20;;;;;;;12.98;4.47;;;;;;;;;;5072847;28;20038;-75
2022/04/03 02:19:46;;;;;;;7.18;3.97;;;;;;;;;;5073092;28;20429;-75
2022/04/03 02:22:14;;;;;;;8.70;4.00;;;;;;;;;;5072703;28;20083;-75
2022/04/03 02:24:40;;;;;;;8.18;4.70;;;;;;;;;;5073093;28;20098;-75
2022/04/03 02:27:06;;;;;;;7.70;3.88;;;;;;;;;;5072591;28;20032;-75
2022/04/03 02:29:32;;;;;;;9.07;3.92;;;;;;;;;;5072632;28;20056;-75
2022/04/03 02:31:59;;;;;;;8.52;3.65;;;;;;;;;;5072484;28;20024;-75
2022/04/03 02:34:26;;;;;;;9.95;4.22;;;;;;;;;;5072532;28;20125;-75
2022/04/03 02:36:52;;;;;;;7.95;4.40;;;;;;;;;;5072531;28;20017;-75
2022/04/03 02:39:18;;;;;;;12.93;4.60;;;;;;;;;;5054526;28;20113;-75
2022/04/03 02:41:44;;;;;;;8.65;4.47;;;;;;;;;;5072150;28;20036;-75
2022/04/03 02:44:11;;;;;;;13.70;4.57;;;;;;;;;;5072470;28;20086;-75
2022/04/03 02:46:37;;;;;;;9.13;4.30;;;;;;;;;;5072037;28;20070;-75
2022/04/03 02:49:03;;;;;;;11.32;5.05;;;;;;;;;;5072313;28;20017;-75
2022/04/03 02:51:29;;;;;;;12.98;4.47;;;;;;;;;;5072256;28;20024;-75
2022/04/03 02:53:55;;;;;;;9.00;4.78;;;;;;;;;;5072265;28;20066;-75
2022/04/03 02:56:21;;;;;;;7.10;3.80;;;;;;;;;;5072013;28;20072;-75
2022/04/03 02:58:48;;;;;;;8.80;3.92;;;;;;;;;;5072180;28;20450;-75
2022/04/03 03:01:14;;;;;;;10.38;4.55;;;;;;;;;;5072058;28;20390;-75
2022/04/03 03:03:40;;;;;;;12.40;6.20;;;;;;;;;;5072276;28;20036;-75
2022/04/03 03:06:06;;;;;;;9.48;3.45;;;;;;;;;;5071962;28;20028;-75
2022/04/03 03:08:32;;;;;;;9.32;4.57;;;;;;;;;;5072069;28;20032;-75
2022/04/03 03:10:58;;;;;;;10.38;4.53;;;;;;;;;;5071943;28;20024;-75
2022/04/03 03:13:24;;;;;;;7.68;4.07;;;;;;;;;;5072033;28;20070;-75
2022/04/03 03:15:51;;;;;;;14.65;5.03;;;;;;;;;;5071943;28;20029;-75
2022/04/03 03:18:17;;;;;;;15.77;5.80;;;;;;;;;;5071954;28;20473;-75
2022/04/03 03:20:43;;;;;;;10.90;4.28;;;;;;;;;;5071510;28;20154;-75
2022/04/03 03:23:09;;;;;;;8.82;4.82;;;;;;;;;;5071857;28;20065;-75
2022/04/03 03:25:35;;;;;;;10.65;4.13;;;;;;;;;;5071786;28;20059;-75
2022/04/03 03:28:01;;;;;;;8.48;4.60;;;;;;;;;;5071795;28;20462;-75
2022/04/03 03:30:27;;;;;;;16.40;4.68;;;;;;;;;;5053655;28;20036;-75
2022/04/03 03:32:54;;;;;;;9.60;4.90;;;;;;;;;;5071939;28;20025;-75
2022/04/03 03:35:20;;;;;;;10.43;5.05;;;;;;;;;;5053730;28;20092;-75
2022/04/03 03:37:46;;;;;;;10.18;4.57;;;;;;;;;;5071884;28;20037;-75
2022/04/03 03:40:14;;;;;;;7.68;3.67;;;;;;;;;;5071654;28;20086;-75
2022/04/03 03:42:41;;;;;;;8.02;4.50;;;;;;;;;;5053255;28;20051;-75
2022/04/03 03:45:08;;;;;;;13.00;4.75;;;;;;;;;;5071684;28;20036;-74
2022/04/03 03:47:35;;;;;;;9.65;4.43;;;;;;;;;;5071630;28;20027;-75
2022/04/03 03:50:02;;;;;;;11.35;4.90;;;;;;;;;;5071614;28;20029;-75
2022/04/03 03:52:28;;;;;;;8.15;3.97;;;;;;;;;;5071495;28;20020;-75
2022/04/03 03:54:54;;;;;;;14.73;4.68;;;;;;;;;;5071258;28;20047;-75
2022/04/03 03:57:22;;;;;;;12.05;5.13;;;;;;;;;;5072687;28;20025;-75
2022/04/03 03:59:48;;;;;;;8.43;4.60;;;;;;;;;;5075563;28;20036;-75
2022/04/03 04:02:14;;;;;;;14.70;5.50;;;;;;;;;;5075548;28;20044;-74
2022/04/03 04:04:40;;;;;;;10.68;5.53;;;;;;;;;;5075485;28;20035;-75
2022/04/03 04:07:06;;;;;;;15.85;5.38;;;;;;;;;;5075309;28;20024;-75
2022/04/03 04:09:32;;;;;;;8.90;4.80;;;;;;;;;;5075347;28;20072;-75
2022/04/03 04:11:58;;;;;;;15.55;5.30;;;;;;;;;;5075313;28;20044;-75
2022/04/03 04:14:24;;;;;;;11.15;5.45;;;;;;;;;;5075218;28;20029;-75
2022/04/03 04:16:50;;;;;;;9.55;4.90;;;;;;;;;;5075210;28;20442;-75
2022/04/03 04:19:16;;;;;;;12.77;5.47;;;;;;;;;;5075108;28;20032;-75
2022/04/03 04:21:43;;;;;;;10.85;5.50;;;;;;;;;;5074903;28;20028;-75
2022/04/03 04:24:10;;;;;;;13.65;5.70;;;;;;;;;;5075275;28;20097;-75
2022/04/03 04:26:36;;;;;;;19.30;6.28;;;;;;;;;;5074912;28;20016;-75
2022/04/03 04:29:03;;;;;;;10.35;5.85;;;;;;;;;;5075024;28;20024;-75
2022/04/03 04:31:29;;;;;;;15.65;5.78;;;;;;;;;;5074975;28;20032;-75
2022/04/03 04:33:55;;;;;;;14.85;6.50;;;;;;;;;;5074912;28;20261;-75
2022/04/03 04:36:21;;;;;;;18.33;5.50;;;;;;;;;;5074773;28;20425;-75
2022/04/03 04:38:48;;;;;;;14.13;6.15;;;;;;;;;;5074809;28;20489;-75
2022/04/03 04:41:14;;;;;;;11.38;5.85;;;;;;;;;;5056405;28;20037;-75
2022/04/03 04:43:40;;;;;;;13.35;5.90;;;;;;;;;;5074776;28;20020;-75
2022/04/03 04:46:06;;;;;;;14.70;6.30;;;;;;;;;;5074603;28;20052;-75
2022/04/03 04:48:34;;;;;;;15.32;6.00;;;;;;;;;;5074652;28;20541;-75
2022/04/03 04:51:01;;;;;;;13.27;6.30;;;;;;;;;;5074503;28;20024;-75
2022/04/03 04:53:27;;;;;;;10.50;5.65;;;;;;;;;;5074488;28;20024;-75
2022/04/03 04:55:53;;;;;;;10.50;5.32;;;;;;;;;;5074120;28;20040;-75
2022/04/03 04:58:19;;;;;;;11.02;5.45;;;;;;;;;;5074463;28;20115;-75
2022/04/03 05:00:45;;;;;;;11.65;5.00;;;;;;;;;;5074353;28;20530;-75
2022/04/03 05:03:12;;;;;;;12.65;5.15;;;;;;;;;;5074375;28;20403;-75
2022/04/03 05:05:38;;;;;;;10.20;5.38;;;;;;;;;;5074137;28;20108;-75
2022/04/03 05:08:04;;;;;;;9.05;4.95;;;;;;;;;;5074027;28;20100;-75
2022/04/03 05:10:31;;;;;;;16.65;5.68;;;;;;;;;;5074192;28;20024;-75
2022/04/03 05:12:57;;;;;;;15.23;5.53;;;;;;;;;;5071680;28;20412;-75
2022/04/03 05:15:24;;;;;;;10.55;4.60;;;;;;;;;;5054061;28;20032;-75
2022/04/03 05:17:50;;;;;;;10.43;4.78;;;;;;;;;;5054123;28;20170;-75
2022/04/03 05:20:16;;;;;;;9.88;4.97;;;;;;;;;;5066629;28;20033;-75
2022/04/03 05:22:43;;;;;;;21.17;5.38;;;;;;;;;;5073819;28;20028;-75
2022/04/03 05:25:11;;;;;;;11.43;4.97;;;;;;;;;;5073846;28;20478;-75
2022/04/03 05:27:37;;;;;;;9.50;4.45;;;;;;;;;;5073776;28;20492;-75
2022/04/03 05:30:03;;;;;;;10.60;4.47;;;;;;;;;;5073704;28;20024;-75
2022/04/03 05:32:31;;;;;;;16.80;5.78;;;;;;;;;;5073923;28;20089;-75
2022/04/03 05:34:58;;;;;;;9.35;5.03;;;;;;;;;;5073703;28;20028;-75
2022/04/03 05:37:24;;;;;;;11.27;5.28;;;;;;;;;;5073710;28;20462;-75
2022/04/03 05:39:51;;;;;;;10.60;4.68;;;;;;;;;;5073614;28;20074;-75
2022/04/03 05:42:18;;;;;;;13.25;5.07;;;;;;;;;;5057722;28;20021;-75
2022/04/03 05:44:44;;;;;;;14.13;5.78;;;;;;;;;;5053534;28;20021;-75
2022/04/03 05:47:10;;;;;;;13.05;5.13;;;;;;;;;;5053480;28;20466;-75
2022/04/03 05:49:37;;;;;;;12.55;4.70;;;;;;;;;;5053441;28;20467;-75
2022/04/03 05:52:03;;;;;;;10.05;5.28;;;;;;;;;;5053413;28;20044;-75
2022/04/03 05:54:29;;;;;;;12.82;5.10;;;;;;;;;;5053179;28;20147;-75
2022/04/03 05:56:55;;;;;;;10.02;4.57;;;;;;;;;;5053073;28;20494;-75
2022/04/03 05:59:21;;;;;;;21.08;5.38;;;;;;;;;;5053316;28;20206;-75
2022/04/03 06:01:48;;;;;;;13.40;4.80;;;;;;;;;;5053310;28;20152;-75
2022/04/03 06:04:14;;;;;;;13.02;5.47;;;;;;;;;;5035220;28;20371;-75
2022/04/03 06:06:40;;;;;;;12.65;5.45;;;;;;;;;;5053089;28;20089;-75
2022/04/03 06:09:06;;;;;;;10.65;5.20;;;;;;;;;;5053148;28;20025;-75
2022/04/03 06:11:32;;;;;;;8.85;4.38;;;;;;;;;;5052953;28;20029;-75
2022/04/03 06:13:58;;;;;;;14.07;5.05;;;;;;;;;;5045469;28;20028;-75
2022/04/03 06:16:24;;;;;;;9.98;5.28;;;;;;;;;;5072922;28;20025;-74
2022/04/03 06:18:53;;;;;;;13.30;4.85;;;;;;;;;;5072687;28;20085;-75
2022/04/03 06:21:19;;;;;;;13.68;5.18;;;;;;;;;;5072114;28;20029;-74
2022/04/03 06:23:45;;;;;;;10.52;5.18;;;;;;;;;;5072658;28;20040;-75
2022/04/03 06:26:11;;;;;;;9.15;5.80;;;;;;;;;;5072509;28;20379;-74
2022/04/03 06:28:37;;;;;;;9.70;5.75;;;;;;;;;;5072743;28;20100;-74
2022/04/03 06:31:03;;;;;;;12.00;5.85;;;;;;;;;;5072459;28;20136;-74
2022/04/03 06:33:29;;;;;;;7.82;4.47;;;;;;;;;;5072637;28;20054;-74
2022/04/03 06:35:55;;;;;;;9.45;4.90;;;;;;;;;;5072431;28;20028;-74
2022/04/03 06:38:22;;;;;;;11.85;5.43;;;;;;;;;;5072535;28;20490;-75
2022/04/03 06:40:49;;;;;;;10.52;5.35;;;;;;;;;;5072079;28;20033;-75
2022/04/03 06:43:19;;;;;;;12.07;5.10;;;;;;;;;;5072353;28;20024;-74
2022/04/03 06:45:45;;;;;;;11.85;5.32;;;;;;;;;;5072293;28;20423;-74
2022/04/03 06:48:11;;;;;;;14.18;5.05;;;;;;;;;;5072391;28;20028;-75
2022/04/03 06:50:37;;;;;;;9.43;5.45;;;;;;;;;;5072121;28;20027;-75
2022/04/03 06:53:04;;;;;;;9.05;5.43;;;;;;;;;;5054311;28;20359;-75
2022/04/03 06:55:30;;;;;;;16.73;5.82;;;;;;;;;;5071953;28;20094;-74
2022/04/03 06:57:56;;;;;;;9.98;5.93;;;;;;;;;;5072019;28;20390;-75
2022/04/03 07:00:23;;;;;;;17.60;6.60;;;;;;;;;;5072153;28;20361;-75
2022/04/03 07:02:49;;;;;;;16.15;6.57;;;;;;;;;;5072122;28;20052;-75
2022/04/03 07:05:15;;;;;;;13.93;6.63;;;;;;;;;;5072034;28;20405;-75
2022/04/03 07:07:41;;;;;;;11.20;6.20;;;;;;;;;;5071968;28;20150;-75
2022/04/03 07:10:08;;;;;;;13.57;6.18;;;;;;;;;;5071899;28;20111;-75
2022/04/03 07:12:35;;;;;;;11.77;7.07;;;;;;;;;;5053802;28;20036;-75
2022/04/03 07:15:01;;;;;;;10.82;6.50;;;;;;;;;;5071821;28;20107;-75
2022/04/03 07:17:27;;;;;;;17.60;7.60;;;;;;;;;;5071950;28;20100;-75
2022/04/03 07:19:53;;;;;;;10.52;5.70;;;;;;;;;;5071745;28;20024;-75
2022/04/03 07:22:19;;;;;;;11.68;7.03;;;;;;;;;;5071716;28;20028;-75
2022/04/03 07:24:45;;;;;;;9.70;5.30;;;;;;;;;;5072198;28;20032;-75
2022/04/03 07:27:11;;;;;;;10.93;4.60;;;;;;;;;;5071713;28;20469;-75
2022/04/03 07:29:37;;;;;;;9.90;4.30;;;;;;;;;;5071706;28;20021;-75
2022/04/03 07:32:04;;;;;;;7.78;3.47;;;;;;;;;;5071813;28;20527;-75
2022/04/03 07:34:30;;;;;;;5.88;3.38;;;;;;;;;;5053570;28;20370;-75
2022/04/03 07:36:56;;;;;;;7.65;3.15;;;;;;;;;;5071519;28;20032;-75
2022/04/03 07:39:23;;;;;;;4.53;2.53;;;;;;;;;;5071631;28;20024;-75
2022/04/03 07:41:49;;;;;;;6.95;2.95;;;;;;;;;;5059935;28;20025;-75
2022/04/03 07:44:15;;;;;;;5.60;2.65;;;;;;;;;;5052048;28;20451;-75
2022/04/03 07:46:41;;;;;;;7.70;2.75;;;;;;;;;;5051981;28;20091;-75
2022/04/03 07:49:07;;;;;;;4.40;2.45;;;;;;;;;;5033741;28;20716;-75
2022/04/03 07:51:34;;;;;;;7.25;2.90;;;;;;;;;;5051449;28;20033;-75
2022/04/03 07:54:00;;;;;;;7.50;3.05;;;;;;;;;;5051563;28;20111;-75
2022/04/03 07:56:27;;;;;;;5.57;2.80;;;;;;;;;;5051118;28;20561;-75
2022/04/03 07:58:53;;;;;;;5.18;2.97;;;;;;;;;;5051415;28;20033;-75
2022/04/03 08:01:19;;;;;;;5.25;3.67;;;;;;;;;;5051519;28;20029;-74
2022/04/03 08:03:45;;;;;;;5.32;3.17;;;;;;;;;;5051456;28;20451;-74
2022/04/03 08:06:11;;;;;;;5.47;3.22;;;;;;;;;;5051201;28;20082;-74
2022/04/03 08:08:37;;;;;;;6.22;2.97;;;;;;;;;;5051409;28;20336;-74
2022/04/03 08:11:03;;;;;;;4.30;2.53;;;;;;;;;;5033311;28;20441;-74
2022/04/03 08:13:29;;;;;;;5.00;3.08;;;;;;;;;;5057940;28;20020;-74
2022/04/03 08:15:55;;;;;;;13.85;10.00;;;;;;;;;;5071282;28;20020;-75
2022/04/03 08:18:22;;;;;;;4.65;2.90;;;;;;;;;;5071346;28;20032;-74
2022/04/03 08:20:51;;;;;;;3.72;2.13;;;;;;;;;;5071062;28;20021;-75
2022/04/03 08:23:17;;;;;;;3.72;2.00;;;;;;;;;;5053212;28;20417;-75
2022/04/03 08:25:45;;;;;;;5.88;1.70;;;;;;;;;;5071054;28;20029;-75
2022/04/03 08:28:11;;;;;;;3.60;1.52;;;;;;;;;;5071322;28;20031;-75
2022/04/03 08:30:38;;;;;;;3.78;2.08;;;;;;;;;;5071013;28;20421;-75
2022/04/03 08:33:05;;;;;;;4.47;1.73;;;;;;;;;;5071210;28;20028;-75
2022/04/03 08:35:31;;;;;;;5.90;2.20;;;;;;;;;;5071168;28;20039;-76
2022/04/03 08:37:58;;;;;;;4.25;1.60;;;;;;;;;;5071103;28;20028;-75
2022/04/03 08:40:25;;;;;;;2.90;1.50;;;;;;;;;;5071028;28;20031;-75
2022/04/03 08:42:52;;;;;;;3.50;1.80;;;;;;;;;;5051299;28;20391;-76
2022/04/03 08:45:18;;;;;;;3.25;1.30;;;;;;;;;;5054658;28;20014;-75
2022/04/03 08:47:45;;;;;;;3.65;1.40;;;;;;;;;;5054689;28;20467;-76
2022/04/03 08:50:12;;;;;;;2.55;0.90;;;;;;;;;;5054573;28;20374;-75
2022/04/03 08:52:47;;;;;;;4.20;0.88;;;;;;;;;;5054355;28;20076;-75
2022/04/03 08:55:13;;;;;;;1.38;0.90;;;;;;;;;;5054383;28;20041;-75
2022/04/03 08:57:39;;;;;;;3.15;1.08;;;;;;;;;;5054547;28;20112;-75
2022/04/03 09:00:06;;;;;;;3.25;1.40;;;;;;;;;;5054536;28;20063;-75
2022/04/03 09:02:32;;;;;;;4.57;1.23;;;;;;;;;;5054446;28;20446;-75
2022/04/03 09:04:59;;;;;;;3.70;0.93;;;;;;;;;;5054499;28;20013;-75
2022/04/03 09:07:25;;;;;;;4.72;1.05;;;;;;;;;;5054231;28;20029;-75
2022/04/03 09:09:58;;;;;;;5.55;1.30;;;;;;;;;;5054277;28;20021;-75
2022/04/03 09:12:24;;;;;;;7.40;1.25;;;;;;;;;;5054304;28;20029;-75
2022/04/03 09:14:51;;;;;;;2.88;1.38;;;;;;;;;;5071825;28;20448;-75
2022/04/03 09:17:38;;;;;;;4.88;1.23;;;;;;;;;;5074225;28;20052;-75
2022/04/03 09:20:06;;;;;;;4.65;0.95;;;;;;;;;;5073983;28;20130;-76
2022/04/03 09:22:33;;;;;;;4.53;0.98;;;;;;;;;;5055905;28;20024;-75
2022/04/03 09:24:59;;;;;;;5.43;1.00;;;;;;;;;;5074130;28;20024;-75
2022/04/03 09:27:26;;;;;;;2.28;0.98;;;;;;;;;;5073953;28;20501;-75
2022/04/03 09:30:02;;;;;;;2.63;1.05;;;;;;;;;;5073638;28;20031;-75
2022/04/03 09:32:28;;;;;;;2.90;0.73;;;;;;;;;;5073979;28;20028;-75
2022/04/03 09:34:57;;;;;;;3.95;0.90;;;;;;;;;;5073802;28;20351;-75
2022/04/03 09:37:23;;;;;;;2.65;0.73;;;;;;;;;;5073722;28;20058;-75
2022/04/03 09:39:50;;;;;;;1.75;0.60;;;;;;;;;;5073715;28;20033;-75
2022/04/03 09:42:16;;;;;;;3.15;0.82;;;;;;;;;;5073316;28;20025;-75
2022/04/03 09:44:44;;;;;;;2.70;0.75;;;;;;;;;;5073629;28;20482;-74
2022/04/03 09:47:33;;;;;;;5.78;0.93;;;;;;;;;;5073475;28;20031;-74
2022/04/03 09:50:05;;;;;;;2.53;0.73;;;;;;;;;;5073476;28;20025;-75
2022/04/03 09:52:37;;;;;;;2.83;0.70;;;;;;;;;;5073393;28;20030;-74
2022/04/03 09:55:28;;;;;;;2.15;0.80;;;;;;;;;;5072054;28;20323;-74
2022/04/03 09:58:05;;;;;;;20.15;8.23;;;;;;;;;;5055373;28;20036;-75
2022/04/03 10:00:38;;;;;;;2.10;0.90;;;;;;;;;;5073316;28;20032;-74
2022/04/03 10:03:04;;;;;;;1.88;1.10;;;;;;;;;;5073232;28;20043;-75
2022/04/03 10:05:31;;;;;;;3.17;1.00;;;;;;;;;;5073243;28;20044;-74
2022/04/03 10:07:59;;;;;;;4.63;0.90;;;;;;;;;;5054924;28;20334;-74
2022/04/03 10:10:26;;;;;;;4.35;0.95;;;;;;;;;;5073022;28;20016;-74
2022/04/03 10:12:52;;;;;;;4.15;1.05;;;;;;;;;;5072912;28;20028;-75
2022/04/03 10:15:18;;;;;;;5.68;1.33;;;;;;;;;;5072940;28;20051;-75
2022/04/03 10:17:44;;;;;;;3.13;1.45;;;;;;;;;;5073094;28;20027;-74
2022/04/03 10:20:10;;;;;;;5.82;1.85;;;;;;;;;;5072803;28;20024;-75
2022/04/03 10:22:38;;;;;;;4.50;1.25;;;;;;;;;;5072552;28;20043;-74
2022/04/03 10:25:05;;;;;;;1.50;1.05;;;;;;;;;;5072628;28;20031;-75
2022/04/03 10:27:34;;;;;;;4.20;0.90;;;;;;;;;;5072357;28;20098;-75
2022/04/03 10:30:00;;;;;;;4.63;0.68;;;;;;;;;;5072335;28;20048;-75
2022/04/03 10:32:27;;;;;;;2.00;1.10;;;;;;;;;;5054484;28;20402;-75
2022/04/03 10:34:56;;;;;;;3.50;1.33;;;;;;;;;;5072452;28;20024;-75
2022/04/03 10:37:33;;;;;;;5.05;1.60;;;;;;;;;;5072430;28;20028;-75
2022/04/03 10:40:04;;;;;;;3.40;1.23;;;;;;;;;;5072419;28;20028;-74
2022/04/03 10:42:30;;;;;;;6.05;1.35;;;;;;;;;;5054077;28;20036;-74
2022/04/03 10:45:12;;;;;;;2.83;1.00;;;;;;;;;;5072397;28;20425;-74
2022/04/03 10:47:41;;;;;;;2.28;1.05;;;;;;;;;;5072246;28;20024;-75
2022/04/03 10:50:08;;;;;;;2.47;1.00;;;;;;;;;;5072092;28;20058;-75
2022/04/03 10:52:37;;;;;;;2.83;0.90;;;;;;;;;;5072051;28;20417;-75
2022/04/03 10:55:12;;;;;;;4.50;1.20;;;;;;;;;;5072059;28;20027;-74
2022/04/03 10:57:42;;;;;;;11.57;5.00;;;;;;;;;;5071843;28;20080;-75
2022/04/03 11:00:14;;;;;;;3.25;1.10;;;;;;;;;;5071990;28;20024;-74
2022/04/03 11:02:44;;;;;;;2.78;1.00;;;;;;;;;;5053951;28;20436;-74
2022/04/03 11:05:36;;;;;;;2.05;0.80;;;;;;;;;;5072043;28;20024;-75
2022/04/03 11:08:02;;;;;;;2.88;0.95;;;;;;;;;;5068135;28;20032;-74
2022/04/03 11:10:54;;;;;;;2.17;0.90;;;;;;;;;;5071756;28;20012;-75
2022/04/03 11:13:32;;;;;;;3.63;1.05;;;;;;;;;;5071690;28;20016;-74
2022/04/03 11:16:04;;;;;;;4.15;0.90;;;;;;;;;;5071501;28;20032;-74
2022/04/03 11:18:33;;;;;;;3.83;0.87;;;;;;;;;;5071773;28;20027;-74
2022/04/03 11:21:08;;;;;;;1.63;0.82;;;;;;;;;;5071539;28;20285;-75
2022/04/03 11:23:40;;;;;;;2.45;1.02;;;;;;;;;;5071853;28;20108;-74
2022/04/03 11:26:07;;;;;;;5.53;1.02;;;;;;;;;;5071482;28;20449;-75
2022/04/03 11:28:34;;;;;;;1.23;0.80;;;;;;;;;;5071660;28;20155;-75
2022/04/03 11:31:00;;;;;;;1.30;0.70;;;;;;;;;;5071609;28;20115;-75
2022/04/03 11:33:27;;;;;;;2.50;0.70;;;;;;;;;;5071633;28;20484;-75
2022/04/03 11:35:53;;;;;;;2.67;0.70;;;;;;;;;;5071494;28;20067;-75
2022/04/03 11:38:20;;;;;;;4.47;0.70;;;;;;;;;;5071611;28;20024;-75
2022/04/03 11:40:47;;;;;;;2.45;0.90;;;;;;;;;;5068430;28;20018;-75
2022/04/03 11:43:14;;;;;;;4.90;1.00;;;;;;;;;;5033549;28;20025;-75
2022/04/03 11:45:41;;;;;;;2.50;0.52;;;;;;;;;;5051459;28;20036;-75
2022/04/03 11:48:20;;;;;;;2.78;0.40;;;;;;;;;;5051512;28;20021;-75
2022/04/03 11:50:48;;;;;;;2.28;0.80;;;;;;;;;;5051305;28;20035;-75
2022/04/03 11:53:14;;;;;;;2.25;0.90;;;;;;;;;;5051550;28;20072;-75
2022/04/03 11:55:40;;;;;;;1.88;0.60;;;;;;;;;;5051146;28;20033;-75
2022/04/03 11:58:06;;;;;;;2.95;0.80;;;;;;;;;;5051409;28;20563;-75
2022/04/03 12:00:32;;;;;;;1.85;0.60;;;;;;;;;;5051388;28;20033;-74
2022/04/03 12:02:59;;;;;;;1.92;0.70;;;;;;;;;;5051449;28;20044;-75
2022/04/03 12:05:25;;;;;;;4.90;0.60;;;;;;;;;;5051318;28;20028;-74
2022/04/03 12:07:51;;;;;;;1.27;0.60;;;;;;;;;;5051296;28;20021;-74
2022/04/03 12:10:24;;;;;;;17.02;0.80;;;;;;;;;;5051252;28;20438;-75
2022/04/03 12:12:53;;;;;;;1.48;0.70;;;;;;;;;;5052190;28;20027;-75
2022/04/03 12:15:23;;;;;;;1.23;0.50;;;;;;;;;;5071192;28;20032;-74
2022/04/03 12:17:55;;;;;;;2.08;0.52;;;;;;;;;;5071706;28;20016;-74
2022/04/03 12:20:21;;;;;;;0.82;0.50;;;;;;;;;;5075036;28;20028;-74
2022/04/03 12:22:51;;;;;;;3.33;1.40;;;;;;;;;;5074962;28;20024;-75
2022/04/03 12:25:17;;;;;;;4.68;3.42;;;;;;;;;;5074931;28;20592;-74
2022/04/03 12:27:44;;;;;;;4.45;2.30;;;;;;;;;;5056868;28;20386;-75
2022/04/03 12:30:10;;;;;;;1.45;0.95;;;;;;;;;;5074674;28;20024;-75
2022/04/03 12:32:39;;;;;;;2.35;1.05;;;;;;;;;;5074983;28;20028;-75
2022/04/03 12:35:06;;;;;;;2.20;0.68;;;;;;;;;;5074776;28;20021;-75
2022/04/03 12:37:33;;;;;;;2.78;0.70;;;;;;;;;;5074709;28;20028;-75
2022/04/03 12:39:59;;;;;;;0.93;0.60;;;;;;;;;;5074730;28;20441;-75
2022/04/03 12:42:28;;;;;;;5.80;1.58;;;;;;;;;;5074351;28;20032;-75
2022/04/03 12:44:56;;;;;;;2.95;1.33;;;;;;;;;;5074698;28;20031;-75
2022/04/03 12:47:23;;;;;;;2.90;1.13;;;;;;;;;;5074658;28;20020;-75
2022/04/03 12:49:50;;;;;;;2.58;1.00;;;;;;;;;;5074397;28;20451;-75
2022/04/03 12:52:37;;;;;;;3.70;1.30;;;;;;;;;;5074386;28;20099;-75
2022/04/03 12:55:03;;;;;;;2.03;0.82;;;;;;;;;;5074522;28;20100;-75
2022/04/03 13:00:17;;;;;;;1.77;0.95;;;;;;;;;;5074475;28;20035;-75
2022/04/03 13:02:44;;;;;;;1.00;0.70;;;;;;;;;;5074426;28;20024;-75
2022/04/03 13:05:14;;;;;;;2.00;1.00;;;;;;;;;;5074362;28;20147;-75
2022/04/03 13:07:40;;;;;;;1.63;0.70;;;;;;;;;;5074238;28;20017;-75
2022/04/03 13:10:06;;;;;;;4.75;0.80;;;;;;;;;;5074176;28;20357;-75
2022/04/03 13:12:32;;;;;;;2.78;1.10;;;;;;;;;;5073969;28;20153;-75
2022/04/03 13:14:59;;;;;;;2.35;1.17;;;;;;;;;;5073951;28;20119;-74
2022/04/03 13:17:26;;;;;;;1.98;0.80;;;;;;;;;;5074162;28;20516;-75
2022/04/03 13:19:53;;;;;;;2.65;1.10;;;;;;;;;;5073957;28;20043;-75
2022/04/03 13:22:19;;;;;;;3.38;0.80;;;;;;;;;;5073797;28;20025;-75
2022/04/03 13:24:45;;;;;;;2.97;1.10;;;;;;;;;;5074361;28;20328;-74
2022/04/03 13:27:11;;;;;;;6.82;1.38;;;;;;;;;;5073774;28;20082;-75
2022/04/03 13:29:38;;;;;;;3.05;0.90;;;;;;;;;;5073700;28;20027;-75
2022/04/03 13:32:05;;;;;;;5.68;1.67;;;;;;;;;;5053952;28;20033;-75
2022/04/03 13:34:31;;;;;;;2.80;1.10;;;;;;;;;;5053744;28;20025;-75
2022/04/03 13:36:57;;;;;;;1.20;0.88;;;;;;;;;;5053672;28;20029;-75
2022/04/03 13:39:24;;;;;;;2.03;0.82;;;;;;;;;;5053599;28;20037;-75
2022/04/03 13:41:52;;;;;;;1.88;0.85;;;;;;;;;;5065008;28;20021;-75
2022/04/03 13:44:19;;;;;;;2.38;0.80;;;;;;;;;;5073621;28;20455;-75
2022/04/03 13:46:46;;;;;;;4.32;1.02;;;;;;;;;;5073491;28;20065;-75
2022/04/03 13:49:12;;;;;;;3.03;1.10;;;;;;;;;;5073469;28;20028;-75
2022/04/03 13:51:38;;;;;;;2.17;0.70;;;;;;;;;;5073417;28;20024;-75
2022/04/03 13:54:05;;;;;;;2.53;0.98;;;;;;;;;;5073558;28;20020;-77
2022/04/03 13:56:31;;;;;;;2.05;0.50;;;;;;;;;;5072998;28;20075;-77
2022/04/03 13:58:57;;;;;;;7.60;1.05;;;;;;;;;;5073330;28;20089;-77
2022/04/03 14:01:23;;;;;;;1.30;0.40;;;;;;;;;;5073159;28;20082;-77
2022/04/03 14:03:49;;;;;;;0.90;0.30;;;;;;;;;;5073212;28;20023;-78
2022/04/03 14:06:17;;;;;;;1.33;0.38;;;;;;;;;;5055112;28;20402;-77
2022/04/03 14:08:43;;;;;;;1.67;0.77;;;;;;;;;;5073282;28;20385;-77
2022/04/03 14:11:09;;;;;;;2.05;0.80;;;;;;;;;;5072974;28;20028;-78
2022/04/03 14:13:36;;;;;;;4.35;1.40;;;;;;;;;;5072956;28;20020;-77
2022/04/03 14:16:04;;;;;;;0.95;0.40;;;;;;;;;;5072891;28;20108;-77
2022/04/03 14:18:30;;;;;;;0.85;0.30;;;;;;;;;;5073004;28;20020;-76
2022/04/03 14:20:57;;;;;;;1.00;0.17;;;;;;;;;;5072749;28;20340;-77
2022/04/03 14:23:23;;;;;;;0.50;0.20;;;;;;;;;;5072598;28;20462;-76
2022/04/03 14:25:49;;;;;;;0.40;0.20;;;;;;;;;;5073391;28;20028;-77
2022/04/03 14:28:17;;;;;;;1.52;0.43;;;;;;;;;;5072919;28;20027;-77
2022/04/03 14:30:43;;;;;;;0.85;0.30;;;;;;;;;;5073153;28;20017;-77
2022/04/03 14:33:09;;;;;;;1.10;0.28;;;;;;;;;;5072772;28;20058;-77
2022/04/03 14:35:36;;;;;;;1.60;0.60;;;;;;;;;;5072791;28;20070;-77
2022/04/03 14:38:02;;;;;;;1.75;0.30;;;;;;;;;;5054717;28;20055;-77
2022/04/03 14:40:29;;;;;;;2.25;0.60;;;;;;;;;;5071956;28;20383;-77